createdAt,value
2023-05-20T00:01:42.679Z,89.18
2023-05-20T00:04:10.763Z,89.21
2023-05-20T00:06:38.790Z,89.47
2023-05-20T00:09:07.988Z,89.38
2023-05-20T00:11:36.025Z,90.94
2023-05-20T00:14:03.809Z,91.09
2023-05-20T00:16:31.633Z,90.41
2023-05-20T00:18:59.501Z,90.91
2023-05-20T00:21:27.342Z,91.19
2023-05-20T00:23:55.184Z,90.44
2023-05-20T00:26:24.447Z,90.31
2023-05-20T00:28:55.725Z,90.67
2023-05-20T00:31:24.123Z,91.26
2023-05-20T00:33:51.912Z,90.66
2023-05-20T00:36:19.753Z,90.66
2023-05-20T00:38:47.772Z,89.91
2023-05-20T00:41:15.880Z,89.46
2023-05-20T00:43:45.300Z,89.72
2023-05-20T00:46:14.042Z,90.14
2023-05-20T00:48:44.643Z,90.39
2023-05-20T00:51:14.113Z,91.13
2023-05-20T00:53:43.127Z,91.40
2023-05-20T00:56:11.287Z,91.13
2023-05-20T00:58:39.540Z,91.06
2023-05-20T01:01:08.764Z,90.60
2023-05-20T01:03:36.768Z,89.89
2023-05-20T01:06:04.864Z,89.88
2023-05-20T01:08:34.291Z,90.49
2023-05-20T01:11:07.613Z,90.34
2023-05-20T01:13:43.314Z,89.98
2023-05-20T01:16:12.969Z,89.56
2023-05-20T01:18:42.435Z,89.41
2023-05-20T01:21:13.013Z,89.20
2023-05-20T01:23:43.114Z,89.88
2023-05-20T01:26:13.678Z,89.65
2023-05-20T01:28:44.618Z,89.69
2023-05-20T01:31:19.353Z,89.94
2023-05-20T01:33:52.835Z,90.16
2023-05-20T01:36:22.730Z,90.49
2023-05-20T01:38:52.623Z,91.04
2023-05-20T01:41:21.954Z,91.36
2023-05-20T01:43:50.533Z,92.24
2023-05-20T01:46:18.509Z,91.93
2023-05-20T01:48:46.536Z,91.47
2023-05-20T01:51:14.743Z,91.11
2023-05-20T01:53:44.504Z,92.16
2023-05-20T01:56:13.697Z,91.94
2023-05-20T01:58:41.571Z,91.73
2023-05-20T02:01:09.492Z,92.80
2023-05-20T02:03:37.313Z,93.00
2023-05-20T02:06:05.302Z,92.70
2023-05-20T02:08:33.131Z,93.11
2023-05-20T02:11:01.036Z,92.82
2023-05-20T02:13:30.899Z,93.50
2023-05-20T02:15:58.828Z,93.67
2023-05-20T02:18:27.788Z,94.09
2023-05-20T02:20:55.619Z,94.16
2023-05-20T02:23:23.500Z,94.39
2023-05-20T02:25:51.292Z,94.36
2023-05-20T02:28:19.185Z,94.09
2023-05-20T02:30:48.409Z,94.34
2023-05-20T02:33:16.308Z,94.01
2023-05-20T02:35:44.525Z,94.42
2023-05-20T02:38:12.434Z,94.76
2023-05-20T02:40:40.435Z,94.55
2023-05-20T02:43:08.271Z,95.06
2023-05-20T02:45:36.428Z,95.06
2023-05-20T02:48:06.095Z,94.87
2023-05-20T02:50:34.058Z,95.34
2023-05-20T02:53:01.920Z,94.97
2023-05-20T02:55:29.835Z,95.21
2023-05-20T02:57:57.677Z,95.26
2023-05-20T03:00:28.645Z,95.43
2023-05-20T03:02:56.746Z,95.44
2023-05-20T03:05:27.458Z,94.97
2023-05-20T03:07:55.337Z,95.41
2023-05-20T03:10:23.280Z,95.25
2023-05-20T03:12:51.169Z,95.39
2023-05-20T03:15:19.247Z,94.89
2023-05-20T03:17:47.162Z,95.78
2023-05-20T03:20:16.724Z,96.03
2023-05-20T03:22:46.039Z,95.60
2023-05-20T03:25:15.035Z,95.11
2023-05-20T03:27:44.709Z,94.45
2023-05-20T03:30:13.453Z,94.18
2023-05-20T03:32:41.977Z,94.37
2023-05-20T03:35:10.230Z,94.41
2023-05-20T03:37:38.798Z,94.34
2023-05-20T03:40:10.734Z,94.20
2023-05-20T03:42:40.334Z,94.04
2023-05-20T03:45:09.445Z,93.48
2023-05-20T03:47:44.213Z,93.10
2023-05-20T03:50:12.619Z,93.47
2023-05-20T03:52:40.915Z,93.90
2023-05-20T03:55:11.347Z,94.07
2023-05-20T03:57:39.219Z,94.45
2023-05-20T04:00:14.499Z,94.74
2023-05-20T04:02:45.698Z,94.32
2023-05-20T04:05:17.300Z,94.33
2023-05-20T04:07:45.479Z,94.78
2023-05-20T04:10:15.944Z,94.85
2023-05-20T04:12:45.180Z,95.80
2023-05-20T04:15:13.789Z,95.56
2023-05-20T04:17:52.400Z,95.03
2023-05-20T04:20:20.502Z,94.93
2023-05-20T04:22:49.473Z,93.84
2023-05-20T04:25:19.208Z,95.34
2023-05-20T04:27:48.003Z,95.97
2023-05-20T04:30:16.843Z,94.40
2023-05-20T04:32:45.301Z,94.23
2023-05-20T04:35:14.146Z,94.75
2023-05-20T04:37:48.234Z,95.56
2023-05-20T04:40:17.102Z,95.40
2023-05-20T04:42:46.463Z,95.59
2023-05-20T04:45:14.311Z,95.86
2023-05-20T04:47:44.367Z,96.35
2023-05-20T04:50:13.419Z,90.87
2023-05-20T04:52:43.239Z,89.21
2023-05-20T04:55:12.636Z,88.00
2023-05-20T04:57:42.232Z,82.84
2023-05-20T05:00:13.756Z,82.96
2023-05-20T05:02:42.227Z,80.12
2023-05-20T05:05:10.745Z,80.57
2023-05-20T05:07:39.656Z,77.71
2023-05-20T05:10:08.601Z,78.01
2023-05-20T05:12:36.400Z,78.01
2023-05-20T05:15:05.992Z,76.97
2023-05-20T05:17:35.213Z,77.93
2023-05-20T05:20:03.495Z,78.20
2023-05-20T05:22:36.780Z,77.51
2023-05-20T05:25:04.984Z,75.99
2023-05-20T05:27:32.831Z,75.43
2023-05-20T05:30:02.010Z,76.12
2023-05-20T05:32:30.521Z,76.79
2023-05-20T05:35:00.218Z,77.71
2023-05-20T05:37:29.538Z,76.14
2023-05-20T05:39:57.729Z,73.66
2023-05-20T05:42:26.392Z,79.84
2023-05-20T05:44:55.786Z,78.42
2023-05-20T05:47:23.767Z,77.62
2023-05-20T05:49:52.720Z,76.55
2023-05-20T05:52:22.044Z,75.98
2023-05-20T05:54:49.898Z,79.63
2023-05-20T05:57:17.896Z,75.93
2023-05-20T05:59:45.899Z,76.53
2023-05-20T06:02:14.634Z,77.86
2023-05-20T06:04:42.873Z,78.47
2023-05-20T06:07:10.755Z,80.13
2023-05-20T06:09:40.782Z,78.34
2023-05-20T06:12:09.028Z,77.44
2023-05-20T06:14:36.979Z,77.72
2023-05-20T06:17:06.179Z,80.97
2023-05-20T06:19:34.151Z,78.36
2023-05-20T06:22:02.225Z,79.39
2023-05-20T06:24:30.200Z,76.58
2023-05-20T06:26:59.565Z,75.65
2023-05-20T06:29:27.486Z,76.76
2023-05-20T06:31:55.414Z,76.16
2023-05-20T06:34:24.406Z,77.37
2023-05-20T06:36:52.231Z,77.95
2023-05-20T06:39:20.524Z,78.37
2023-05-20T06:41:48.702Z,76.03
2023-05-20T06:44:29.811Z,76.58
2023-05-20T06:47:03.031Z,73.51
2023-05-20T06:49:32.524Z,74.80
2023-05-20T06:52:01.500Z,78.42
2023-05-20T06:54:30.424Z,75.97
2023-05-20T06:56:58.785Z,78.08
2023-05-20T06:59:26.785Z,75.04
2023-05-20T07:01:56.364Z,78.12
2023-05-20T07:04:24.192Z,75.41
2023-05-20T07:06:52.238Z,74.94
2023-05-20T07:09:21.187Z,75.20
2023-05-20T07:11:49.073Z,74.29
2023-05-20T07:14:18.078Z,75.39
2023-05-20T07:16:47.226Z,74.48
2023-05-20T07:19:17.152Z,73.25
2023-05-20T07:21:45.040Z,73.97
2023-05-20T07:24:31.362Z,72.76
2023-05-20T07:26:59.719Z,73.94
2023-05-20T07:29:27.809Z,74.40
2023-05-20T07:31:55.789Z,73.18
2023-05-20T07:34:25.021Z,74.68
2023-05-20T07:36:53.843Z,73.71
2023-05-20T07:39:22.637Z,72.47
2023-05-20T07:41:50.698Z,72.81
2023-05-20T07:44:21.534Z,72.79
2023-05-20T07:46:51.518Z,70.93
2023-05-20T07:49:21.218Z,72.83
2023-05-20T07:51:50.785Z,74.03
2023-05-20T07:54:18.741Z,73.18
2023-05-20T07:56:49.233Z,73.31
2023-05-20T07:59:17.365Z,74.86
2023-05-20T08:01:48.246Z,74.79
2023-05-20T08:04:18.479Z,76.82
2023-05-20T08:06:47.630Z,76.10
2023-05-20T08:09:24.095Z,77.52
2023-05-20T08:11:55.735Z,76.37
2023-05-20T08:14:23.926Z,75.29
2023-05-20T08:16:55.030Z,74.08
2023-05-20T08:19:23.794Z,73.98
2023-05-20T08:21:52.374Z,76.04
2023-05-20T08:24:20.503Z,75.91
2023-05-20T08:26:50.368Z,76.36
2023-05-20T08:29:19.877Z,77.12
2023-05-20T08:31:47.718Z,75.74
2023-05-20T08:34:17.166Z,76.01
2023-05-20T08:36:46.147Z,75.95
2023-05-20T08:39:14.197Z,75.31
2023-05-20T08:41:42.370Z,76.45
2023-05-20T08:44:12.325Z,76.36
2023-05-20T08:46:42.324Z,76.16
2023-05-20T08:49:11.036Z,76.43
2023-05-20T08:51:40.616Z,75.82
2023-05-20T08:54:11.926Z,76.25
2023-05-20T08:56:42.054Z,74.77
2023-05-20T08:59:11.471Z,76.30
2023-05-20T09:01:44.278Z,73.74
2023-05-20T09:04:12.917Z,71.11
2023-05-20T09:06:44.906Z,69.45
2023-05-20T09:09:13.517Z,71.11
2023-05-20T09:11:41.903Z,70.22
2023-05-20T09:14:11.281Z,69.51
2023-05-20T09:16:41.233Z,72.45
2023-05-20T09:19:09.911Z,74.23
2023-05-20T09:21:38.984Z,73.63
2023-05-20T09:24:07.704Z,71.24
2023-05-20T09:26:36.096Z,71.96
2023-05-20T09:29:03.922Z,71.67
2023-05-20T09:31:34.467Z,69.69
2023-05-20T09:34:03.013Z,71.30
2023-05-20T09:36:31.858Z,71.31
2023-05-20T09:39:05.279Z,70.48
2023-05-20T09:41:36.832Z,71.10
2023-05-20T09:44:06.682Z,72.51
2023-05-20T09:46:37.594Z,73.28
2023-05-20T09:49:07.874Z,72.00
2023-05-20T09:51:36.904Z,70.32
2023-05-20T09:54:08.399Z,72.53
2023-05-20T09:56:37.260Z,70.75
2023-05-20T09:59:06.982Z,72.79
2023-05-20T10:01:36.618Z,71.82
2023-05-20T10:04:07.421Z,70.74
2023-05-20T10:06:57.473Z,72.39
2023-05-20T10:09:43.905Z,71.36
2023-05-20T10:12:21.122Z,71.23
2023-05-20T10:14:59.512Z,71.63
2023-05-20T10:17:40.353Z,69.39
2023-05-20T10:20:11.817Z,69.69
2023-05-20T10:22:40.835Z,70.89
2023-05-20T10:25:13.975Z,71.25
2023-05-20T10:27:46.421Z,72.24
2023-05-20T10:30:18.456Z,72.10
2023-05-20T10:32:57.496Z,70.52
2023-05-20T10:35:27.474Z,71.29
2023-05-20T10:37:56.799Z,69.23
2023-05-20T10:40:26.523Z,68.84
2023-05-20T10:42:54.721Z,70.11
2023-05-20T10:45:29.875Z,68.36
2023-05-20T10:48:00.008Z,68.12
2023-05-20T10:50:29.063Z,68.96
2023-05-20T10:53:04.159Z,68.83
2023-05-20T10:55:37.361Z,68.21
2023-05-20T10:58:05.938Z,67.39
2023-05-20T11:00:36.686Z,66.23
2023-05-20T11:03:06.914Z,66.20
2023-05-20T11:05:34.961Z,65.10
2023-05-20T11:08:06.164Z,68.15
2023-05-20T11:10:38.821Z,69.51
2023-05-20T11:13:07.906Z,69.46
2023-05-20T11:15:36.826Z,69.44
2023-05-20T11:18:06.168Z,70.39
2023-05-20T11:20:35.415Z,70.73
2023-05-20T11:23:04.334Z,70.66
2023-05-20T11:25:32.174Z,69.66
2023-05-20T11:28:00.981Z,68.79
2023-05-20T11:30:28.911Z,68.69
2023-05-20T11:33:01.262Z,68.24
2023-05-20T11:35:32.160Z,68.07
2023-05-20T11:38:03.568Z,67.26
2023-05-20T11:40:42.609Z,67.06
2023-05-20T11:43:17.498Z,67.45
2023-05-20T11:45:46.657Z,68.64
2023-05-20T11:48:15.657Z,68.86
2023-05-20T11:50:47.282Z,67.94
2023-05-20T11:53:17.804Z,66.85
2023-05-20T11:55:47.496Z,66.87
2023-05-20T11:58:20.456Z,68.67
2023-05-20T12:00:55.186Z,66.09
2023-05-20T12:03:27.490Z,67.78
2023-05-20T12:05:56.929Z,68.79
2023-05-20T12:08:24.963Z,66.38
2023-05-20T12:10:52.834Z,65.70
2023-05-20T12:13:20.807Z,65.06
2023-05-20T12:15:48.951Z,66.52
2023-05-20T12:18:16.870Z,66.89
2023-05-20T12:20:44.717Z,64.20
2023-05-20T12:23:14.052Z,64.30
2023-05-20T12:25:41.873Z,67.33
2023-05-20T12:28:09.752Z,67.30
2023-05-20T12:30:37.720Z,65.40
2023-05-20T12:33:06.413Z,66.70
2023-05-20T12:35:38.992Z,63.84
2023-05-20T12:38:07.240Z,63.50
2023-05-20T12:40:37.964Z,64.77
2023-05-20T12:43:06.746Z,65.04
2023-05-20T12:45:35.061Z,65.55
2023-05-20T12:48:03.277Z,66.33
2023-05-20T12:50:31.211Z,65.80
2023-05-20T12:52:59.130Z,65.94
2023-05-20T12:55:27.384Z,67.18
2023-05-20T12:57:57.192Z,67.45
2023-05-20T13:00:25.087Z,66.93
2023-05-20T13:02:53.187Z,68.13
2023-05-20T13:05:21.779Z,69.09
2023-05-20T13:07:50.024Z,68.84
2023-05-20T13:10:18.262Z,68.81
2023-05-20T13:12:46.951Z,68.69
2023-05-20T13:15:16.849Z,68.03
2023-05-20T13:17:44.727Z,68.52
2023-05-20T13:20:13.736Z,69.14
2023-05-20T13:22:41.645Z,68.49
2023-05-20T13:25:10.221Z,68.37
2023-05-20T13:27:38.023Z,69.88
2023-05-20T13:30:07.265Z,70.35
2023-05-20T13:32:36.532Z,70.32
2023-05-20T13:35:04.516Z,71.78
2023-05-20T13:37:32.403Z,71.60
2023-05-20T13:40:00.315Z,71.45
2023-05-20T13:42:28.441Z,69.71
2023-05-20T13:44:56.319Z,69.26
2023-05-20T13:47:24.186Z,68.35
2023-05-20T13:49:53.521Z,70.07
2023-05-20T13:52:21.353Z,68.83
2023-05-20T13:54:49.270Z,69.57
2023-05-20T13:57:17.192Z,69.54
2023-05-20T13:59:45.070Z,68.20
2023-05-20T14:02:12.995Z,70.39
2023-05-20T14:04:44.719Z,69.09
2023-05-20T14:07:14.255Z,69.35
2023-05-20T14:09:42.022Z,70.72
2023-05-20T14:12:09.924Z,69.43
2023-05-20T14:14:37.756Z,69.81
2023-05-20T14:17:05.867Z,69.35
2023-05-20T14:19:33.759Z,70.44
2023-05-20T14:22:01.967Z,68.63
2023-05-20T14:24:31.231Z,68.55
2023-05-20T14:26:59.135Z,68.85
2023-05-20T14:29:27.039Z,71.22
2023-05-20T14:31:55.028Z,71.84
2023-05-20T14:34:23.104Z,71.71
2023-05-20T14:36:51.007Z,71.51
2023-05-20T14:39:19.075Z,72.63
2023-05-20T14:41:48.270Z,73.48
2023-05-20T14:44:16.167Z,72.88
2023-05-20T14:46:44.051Z,73.51
2023-05-20T14:49:12.057Z,74.51
2023-05-20T14:51:39.902Z,73.64
2023-05-20T14:54:08.902Z,73.42
2023-05-20T14:56:36.827Z,72.98
2023-05-20T14:59:05.989Z,73.30
2023-05-20T15:01:34.035Z,72.98
2023-05-20T15:04:02.050Z,74.02
2023-05-20T15:06:30.544Z,72.74
2023-05-20T15:08:58.605Z,73.88
2023-05-20T15:11:26.564Z,74.67
2023-05-20T15:13:54.441Z,74.04
2023-05-20T15:16:25.265Z,73.79
2023-05-20T15:18:54.613Z,74.09
2023-05-20T15:21:22.472Z,73.81
2023-05-20T15:23:50.543Z,75.15
2023-05-20T15:26:18.754Z,75.04
2023-05-20T15:28:46.681Z,76.00
2023-05-20T15:31:14.485Z,76.38
2023-05-20T15:33:44.142Z,75.61
2023-05-20T15:36:12.481Z,74.78
2023-05-20T15:38:40.359Z,74.24
2023-05-20T15:41:09.645Z,74.54
2023-05-20T15:43:37.657Z,75.18
2023-05-20T15:46:05.667Z,75.49
2023-05-20T15:48:34.788Z,76.36
2023-05-20T15:51:04.098Z,75.25
2023-05-20T15:53:31.936Z,74.39
2023-05-20T15:55:59.829Z,75.74
2023-05-20T15:58:27.777Z,76.81
2023-05-20T16:00:55.697Z,76.51
2023-05-20T16:03:23.819Z,76.33
2023-05-20T16:05:51.672Z,77.89
2023-05-20T16:08:23.746Z,76.89
2023-05-20T16:10:52.077Z,77.96
2023-05-20T16:13:19.953Z,77.91
2023-05-20T16:15:47.934Z,77.49
2023-05-20T16:18:15.917Z,77.38
2023-05-20T16:20:43.852Z,77.58
2023-05-20T16:23:11.868Z,77.30
2023-05-20T16:25:41.257Z,77.69
2023-05-20T16:28:09.085Z,78.60
2023-05-20T16:30:37.237Z,78.76
2023-05-20T16:33:05.222Z,77.69
2023-05-20T16:35:33.147Z,78.39
2023-05-20T16:38:01.366Z,78.45
2023-05-20T16:40:29.220Z,78.34
2023-05-20T16:42:58.582Z,78.42
2023-05-20T16:45:26.458Z,78.49
2023-05-20T16:47:54.426Z,78.24
2023-05-20T16:50:22.528Z,79.44
2023-05-20T16:52:50.491Z,79.08
2023-05-20T16:55:18.363Z,79.27
2023-05-20T16:57:47.744Z,78.63
2023-05-20T17:00:17.533Z,79.11
2023-05-20T17:02:46.438Z,78.82
2023-05-20T17:05:16.234Z,79.41
2023-05-20T17:07:44.815Z,79.55
2023-05-20T17:10:12.795Z,77.92
2023-05-20T17:12:40.688Z,78.77
2023-05-20T17:15:09.712Z,78.42
2023-05-20T17:17:39.042Z,78.38
2023-05-20T17:20:08.422Z,78.72
2023-05-20T17:22:36.587Z,79.39
2023-05-20T17:25:04.522Z,78.62
2023-05-20T17:27:33.096Z,79.67
2023-05-20T17:30:00.941Z,78.98
2023-05-20T17:32:28.851Z,79.89
2023-05-20T17:34:58.113Z,80.20
2023-05-20T17:37:26.063Z,78.94
2023-05-20T17:39:54.002Z,78.37
2023-05-20T17:42:21.937Z,78.95
2023-05-20T17:44:49.988Z,78.16
2023-05-20T17:47:18.017Z,79.19
2023-05-20T17:49:46.326Z,78.52
2023-05-20T17:52:15.645Z,79.62
2023-05-20T17:54:43.596Z,79.42
2023-05-20T17:57:11.509Z,79.80
2023-05-20T17:59:41.555Z,79.86
2023-05-20T18:02:09.459Z,80.30
2023-05-20T18:04:37.498Z,80.17
2023-05-20T18:07:06.812Z,80.37
2023-05-20T18:09:36.102Z,79.53
2023-05-20T18:12:03.944Z,79.50
2023-05-20T18:14:32.057Z,78.72
2023-05-20T18:16:59.952Z,78.45
2023-05-20T18:19:27.915Z,77.64
2023-05-20T18:21:56.083Z,78.95
2023-05-20T18:24:23.909Z,79.33
2023-05-20T18:26:53.219Z,79.65
2023-05-20T18:29:23.125Z,78.63
2023-05-20T18:31:51.097Z,77.90
2023-05-20T18:34:19.031Z,77.95
2023-05-20T18:36:47.066Z,78.25
2023-05-20T18:39:20.221Z,77.97
2023-05-20T18:41:48.213Z,78.43
2023-05-20T18:44:18.676Z,79.15
2023-05-20T18:46:46.677Z,79.06
2023-05-20T18:49:14.577Z,79.11
2023-05-20T18:51:42.757Z,78.52
2023-05-20T18:54:10.727Z,79.59
2023-05-20T18:56:38.583Z,80.03
2023-05-20T18:59:06.466Z,80.06
2023-05-20T19:01:38.106Z,80.65
2023-05-20T19:04:06.345Z,80.60
2023-05-20T19:06:35.259Z,80.93
2023-05-20T19:09:05.658Z,81.06
2023-05-20T19:11:36.948Z,81.45
2023-05-20T19:14:08.319Z,81.77
2023-05-20T19:16:38.550Z,81.83
2023-05-20T19:19:11.791Z,81.45
2023-05-20T19:21:46.669Z,81.83
2023-05-20T19:24:21.776Z,81.99
2023-05-20T19:26:51.076Z,81.85
2023-05-20T19:29:19.018Z,82.53
2023-05-20T19:31:48.251Z,82.31
2023-05-20T19:34:16.198Z,82.22
2023-05-20T19:36:44.155Z,81.99
2023-05-20T19:39:12.377Z,81.76
2023-05-20T19:41:40.600Z,82.22
2023-05-20T19:44:09.790Z,82.62
2023-05-20T19:46:38.084Z,82.96
2023-05-20T19:49:07.525Z,82.51
2023-05-20T19:51:35.503Z,82.18
2023-05-20T19:54:03.556Z,81.82
2023-05-20T19:56:31.502Z,81.85
2023-05-20T19:59:01.639Z,82.26
2023-05-20T20:01:29.582Z,82.89
2023-05-20T20:03:57.504Z,82.13
2023-05-20T20:06:26.748Z,82.70
2023-05-20T20:08:54.674Z,82.84
2023-05-20T20:11:22.537Z,82.30
2023-05-20T20:13:50.485Z,82.43
2023-05-20T20:16:18.506Z,81.83
2023-05-20T20:18:46.423Z,82.98
2023-05-20T20:21:15.152Z,83.05
2023-05-20T20:23:44.411Z,84.48
2023-05-20T20:26:13.824Z,83.61
2023-05-20T20:28:41.836Z,83.95
2023-05-20T20:31:09.697Z,85.40
2023-05-20T20:33:37.585Z,85.33
2023-05-20T20:36:05.896Z,84.23
2023-05-20T20:38:33.763Z,85.07
2023-05-20T20:41:03.833Z,85.46
2023-05-20T20:43:34.768Z,85.25
2023-05-20T20:46:03.486Z,85.79
2023-05-20T20:48:31.384Z,85.78
2023-05-20T20:50:59.357Z,84.35
2023-05-20T20:53:27.204Z,84.51
2023-05-20T20:55:56.938Z,85.49
2023-05-20T20:58:27.090Z,85.25
2023-05-20T21:00:55.064Z,85.23
2023-05-20T21:03:23.976Z,84.82
2023-05-20T21:05:52.057Z,85.71
2023-05-20T21:08:22.096Z,85.70
2023-05-20T21:10:49.953Z,86.01
2023-05-20T21:13:17.833Z,86.97
2023-05-20T21:15:47.495Z,86.41
2023-05-20T21:18:21.637Z,87.18
2023-05-20T21:20:49.713Z,87.71
2023-05-20T21:23:17.655Z,88.08
2023-05-20T21:25:45.832Z,88.73
2023-05-20T21:28:13.852Z,88.55
2023-05-20T21:30:41.806Z,88.65
2023-05-20T21:33:11.047Z,88.99
2023-05-20T21:35:38.975Z,89.67
2023-05-20T21:38:06.820Z,90.02
2023-05-20T21:40:34.646Z,89.88
2023-05-20T21:43:02.555Z,89.38
2023-05-20T21:45:30.327Z,89.16
2023-05-20T21:47:58.410Z,89.38
2023-05-20T21:50:27.674Z,90.13
2023-05-20T21:52:55.592Z,90.38
2023-05-20T21:55:24.066Z,89.75
2023-05-20T21:57:51.947Z,89.26
2023-05-20T22:00:20.659Z,88.49
2023-05-20T22:02:48.838Z,88.86
2023-05-20T22:05:17.345Z,89.94
2023-05-20T22:07:47.523Z,90.39
2023-05-20T22:10:17.599Z,91.35
2023-05-20T22:12:45.854Z,92.69
2023-05-20T22:15:13.802Z,93.87
2023-05-20T22:17:42.328Z,93.17
2023-05-20T22:20:11.681Z,92.74
2023-05-20T22:22:39.884Z,92.48
2023-05-20T22:25:10.854Z,91.75
2023-05-20T22:27:38.757Z,91.86
2023-05-20T22:30:08.472Z,91.95
2023-05-20T22:32:36.783Z,91.57
2023-05-20T22:35:04.848Z,91.61
2023-05-20T22:37:32.726Z,92.33
2023-05-20T22:40:00.570Z,92.83
2023-05-20T22:42:29.723Z,93.78
2023-05-20T22:44:57.587Z,94.14
2023-05-20T22:47:25.553Z,94.31
2023-05-20T22:49:53.877Z,95.12
2023-05-20T22:52:25.358Z,96.03
2023-05-20T22:54:53.343Z,95.94
2023-05-20T22:57:21.234Z,96.82
2023-05-20T22:59:51.986Z,96.71
2023-05-20T23:02:19.893Z,94.95
2023-05-20T23:04:48.076Z,95.68
2023-05-20T23:07:19.362Z,96.47
2023-05-20T23:09:48.414Z,97.26
2023-05-20T23:12:17.068Z,97.06
2023-05-20T23:14:44.987Z,97.88
2023-05-20T23:17:14.099Z,98.19
2023-05-20T23:19:42.896Z,97.81
2023-05-20T23:22:10.930Z,97.14
2023-05-20T23:24:38.731Z,96.67
2023-05-20T23:27:06.688Z,96.58
2023-05-20T23:29:34.630Z,96.66
2023-05-20T23:32:02.461Z,96.93
2023-05-20T23:34:31.856Z,97.66
2023-05-20T23:36:59.708Z,96.57
2023-05-20T23:39:27.549Z,96.24
2023-05-20T23:41:55.401Z,96.21
2023-05-20T23:44:23.257Z,96.15
2023-05-20T23:46:51.188Z,96.67
2023-05-20T23:49:24.350Z,97.49
2023-05-20T23:51:53.903Z,97.00
2023-05-20T23:54:22.721Z,97.10
2023-05-20T23:56:50.894Z,96.99
2023-05-20T23:59:18.704Z,98.17
